createdAt,value
2022-10-06T00:00:32.920Z,80.37
2022-10-06T00:02:59.686Z,80.09
2022-10-06T00:05:26.527Z,80.04
2022-10-06T00:07:53.218Z,79.89
2022-10-06T00:10:19.800Z,79.80
2022-10-06T00:12:47.596Z,79.68
2022-10-06T00:15:18.085Z,79.74
2022-10-06T00:17:44.792Z,79.35
2022-10-06T00:20:11.438Z,79.22
2022-10-06T00:22:42.775Z,79.10
2022-10-06T00:25:10.339Z,78.96
2022-10-06T00:27:41.172Z,78.89
2022-10-06T00:30:13.153Z,78.71
2022-10-06T00:32:39.963Z,78.72
2022-10-06T00:35:07.088Z,78.57
2022-10-06T00:37:35.315Z,78.63
2022-10-06T00:40:06.733Z,78.58
2022-10-06T00:42:33.421Z,78.52
2022-10-06T00:45:00.417Z,78.43
2022-10-06T00:47:27.524Z,78.44
2022-10-06T00:49:54.823Z,78.53
2022-10-06T00:52:23.056Z,78.61
2022-10-06T00:54:49.820Z,78.69
2022-10-06T00:57:16.443Z,78.53
2022-10-06T00:59:43.142Z,78.96
2022-10-06T01:02:20.793Z,78.92
2022-10-06T01:04:50.922Z,79.04
2022-10-06T01:07:18.561Z,79.17
2022-10-06T01:09:45.264Z,79.27
2022-10-06T01:12:12.885Z,79.14
2022-10-06T01:14:39.523Z,79.46
2022-10-06T01:17:19.646Z,79.34
2022-10-06T01:19:51.965Z,79.22
2022-10-06T01:22:26.155Z,79.43
2022-10-06T01:24:52.850Z,79.40
2022-10-06T01:27:20.304Z,79.38
2022-10-06T01:29:47.046Z,79.39
2022-10-06T01:32:13.727Z,79.23
2022-10-06T01:34:40.320Z,79.45
2022-10-06T01:37:07.067Z,79.66
2022-10-06T01:39:34.045Z,79.66
2022-10-06T01:42:00.648Z,79.69
2022-10-06T01:44:27.391Z,79.79
2022-10-06T01:46:54.118Z,80.08
2022-10-06T01:49:20.928Z,79.90
2022-10-06T01:51:48.308Z,79.79
2022-10-06T01:54:14.979Z,80.04
2022-10-06T01:56:42.071Z,80.06
2022-10-06T01:59:08.751Z,80.23
2022-10-06T02:01:35.926Z,80.14
2022-10-06T02:04:02.794Z,80.59
2022-10-06T02:06:30.421Z,80.42
2022-10-06T02:08:58.244Z,80.47
2022-10-06T02:11:24.846Z,80.39
2022-10-06T02:13:51.586Z,80.45
2022-10-06T02:16:18.291Z,80.59
2022-10-06T02:18:45.168Z,80.26
2022-10-06T02:21:15.775Z,80.65
2022-10-06T02:23:42.571Z,80.57
2022-10-06T02:26:09.229Z,80.51
2022-10-06T02:28:36.164Z,80.68
2022-10-06T02:31:05.102Z,80.63
2022-10-06T02:33:32.238Z,80.64
2022-10-06T02:35:59.150Z,80.75
2022-10-06T02:38:27.138Z,80.57
2022-10-06T02:40:54.678Z,80.76
2022-10-06T02:43:21.733Z,80.97
2022-10-06T02:46:01.452Z,81.23
2022-10-06T02:48:29.324Z,81.26
2022-10-06T02:50:57.138Z,81.46
2022-10-06T02:53:25.737Z,81.62
2022-10-06T02:56:06.349Z,81.97
2022-10-06T02:58:33.145Z,81.81
2022-10-06T03:01:08.058Z,82.11
2022-10-06T03:03:35.339Z,82.09
2022-10-06T03:06:06.522Z,82.05
2022-10-06T03:08:33.660Z,82.19
2022-10-06T03:11:02.219Z,82.45
2022-10-06T03:13:29.768Z,82.40
2022-10-06T03:15:57.148Z,82.45
2022-10-06T03:18:24.072Z,82.68
2022-10-06T03:20:51.025Z,82.73
2022-10-06T03:23:18.137Z,82.76
2022-10-06T03:25:55.256Z,82.83
2022-10-06T03:28:22.105Z,83.04
2022-10-06T03:30:49.062Z,83.00
2022-10-06T03:33:16.383Z,83.04
2022-10-06T03:35:43.115Z,83.10
2022-10-06T03:38:09.792Z,83.37
2022-10-06T03:40:36.465Z,83.51
2022-10-06T03:43:03.160Z,83.46
2022-10-06T03:45:29.789Z,83.81
2022-10-06T03:47:56.484Z,83.56
2022-10-06T03:50:23.440Z,83.49
2022-10-06T03:52:51.419Z,83.30
2022-10-06T03:55:19.002Z,83.02
2022-10-06T03:57:45.713Z,83.37
2022-10-06T04:00:12.862Z,83.48
2022-10-06T04:02:39.568Z,83.50
2022-10-06T04:05:06.963Z,83.70
2022-10-06T04:07:33.799Z,83.77
2022-10-06T04:10:00.538Z,83.95
2022-10-06T04:12:27.211Z,84.08
2022-10-06T04:14:59.224Z,84.28
2022-10-06T04:17:27.069Z,84.53
2022-10-06T04:19:53.783Z,84.91
2022-10-06T04:22:20.417Z,85.10
2022-10-06T04:24:47.336Z,85.15
2022-10-06T04:27:29.655Z,85.50
2022-10-06T04:30:15.908Z,85.68
2022-10-06T04:32:43.401Z,85.75
2022-10-06T04:35:10.562Z,85.90
2022-10-06T04:37:37.858Z,86.18
2022-10-06T04:40:04.675Z,86.33
2022-10-06T04:42:35.119Z,86.49
2022-10-06T04:45:04.969Z,86.58
2022-10-06T04:47:32.092Z,86.59
2022-10-06T04:49:58.756Z,86.70
2022-10-06T04:52:25.562Z,86.64
2022-10-06T04:54:52.581Z,86.87
2022-10-06T04:57:19.651Z,86.98
2022-10-06T05:00:07.988Z,87.15
2022-10-06T05:02:38.002Z,87.53
2022-10-06T05:05:05.884Z,87.89
2022-10-06T05:07:32.791Z,88.28
2022-10-06T05:09:59.801Z,88.60
2022-10-06T05:12:28.367Z,88.89
2022-10-06T05:14:55.092Z,89.04
2022-10-06T05:17:21.800Z,89.19
2022-10-06T05:19:48.641Z,89.38
2022-10-06T05:22:15.269Z,89.57
2022-10-06T05:24:41.998Z,89.57
2022-10-06T05:27:08.732Z,89.72
2022-10-06T05:29:35.362Z,89.59
2022-10-06T05:32:05.053Z,89.43
2022-10-06T05:34:32.619Z,89.37
2022-10-06T05:36:59.294Z,89.26
2022-10-06T05:39:25.995Z,89.09
2022-10-06T05:41:56.007Z,88.87
2022-10-06T05:44:23.717Z,88.48
2022-10-06T05:46:50.669Z,88.11
2022-10-06T05:49:18.203Z,87.64
2022-10-06T05:51:53.200Z,87.13
2022-10-06T05:54:26.107Z,86.56
2022-10-06T05:56:53.069Z,86.17
2022-10-06T05:59:19.815Z,85.50
2022-10-06T06:01:47.187Z,84.85
2022-10-06T06:04:21.071Z,84.55
2022-10-06T06:06:51.307Z,83.91
2022-10-06T06:09:21.395Z,83.41
2022-10-06T06:11:50.834Z,83.15
2022-10-06T06:14:44.087Z,82.57
2022-10-06T06:17:14.886Z,82.07
2022-10-06T06:19:41.510Z,81.21
2022-10-06T06:22:08.529Z,80.58
2022-10-06T06:24:38.424Z,79.87
2022-10-06T06:27:05.095Z,79.20
2022-10-06T06:29:31.846Z,79.00
2022-10-06T06:31:58.530Z,78.36
2022-10-06T06:34:27.022Z,78.15
2022-10-06T06:36:55.910Z,77.85
2022-10-06T06:39:22.812Z,77.67
2022-10-06T06:41:50.752Z,77.57
2022-10-06T06:44:35.997Z,76.62
2022-10-06T06:47:06.726Z,76.11
2022-10-06T06:49:33.672Z,75.61
2022-10-06T06:52:05.207Z,75.36
2022-10-06T06:54:33.886Z,75.08
2022-10-06T06:57:05.302Z,74.66
2022-10-06T06:59:34.099Z,74.21
2022-10-06T07:02:01.224Z,74.15
2022-10-06T07:04:30.567Z,74.14
2022-10-06T07:06:57.985Z,73.73
2022-10-06T07:09:30.294Z,73.52
2022-10-06T07:12:11.645Z,73.36
2022-10-06T07:15:02.452Z,73.46
2022-10-06T07:17:49.212Z,73.46
2022-10-06T07:20:34.922Z,73.31
2022-10-06T07:23:20.289Z,73.27
2022-10-06T07:25:47.004Z,73.03
2022-10-06T07:28:17.149Z,73.11
2022-10-06T07:30:44.894Z,72.74
2022-10-06T07:33:15.474Z,72.82
2022-10-06T07:35:43.681Z,72.64
2022-10-06T07:38:11.015Z,72.45
2022-10-06T07:40:50.685Z,72.31
2022-10-06T07:43:29.988Z,72.17
2022-10-06T07:45:57.410Z,72.05
2022-10-06T07:48:31.722Z,72.04
2022-10-06T07:51:02.874Z,71.82
2022-10-06T07:53:36.158Z,71.91
2022-10-06T07:56:08.738Z,71.93
2022-10-06T07:58:40.076Z,71.54
2022-10-06T08:01:08.389Z,71.64
2022-10-06T08:03:36.838Z,71.67
2022-10-06T08:06:03.741Z,71.50
2022-10-06T08:08:31.391Z,71.68
2022-10-06T08:11:01.521Z,71.65
2022-10-06T08:13:28.635Z,71.13
2022-10-06T08:15:56.483Z,70.60
2022-10-06T08:18:45.344Z,70.23
2022-10-06T08:21:19.375Z,70.35
2022-10-06T08:23:46.945Z,70.00
2022-10-06T08:26:14.287Z,69.86
2022-10-06T08:28:43.924Z,69.81
2022-10-06T08:31:15.572Z,69.77
2022-10-06T08:33:43.031Z,69.27
2022-10-06T08:37:32.759Z,68.80
2022-10-06T08:39:59.476Z,68.89
2022-10-06T08:42:35.098Z,68.48
2022-10-06T08:45:10.541Z,68.43
2022-10-06T08:47:37.274Z,68.74
2022-10-06T08:50:06.219Z,68.18
2022-10-06T08:52:48.074Z,67.68
2022-10-06T08:55:32.540Z,67.53
2022-10-06T08:58:31.754Z,67.90
2022-10-06T09:01:13.922Z,67.79
2022-10-06T09:03:40.799Z,67.71
2022-10-06T09:06:18.748Z,67.91
2022-10-06T09:08:54.311Z,67.93
2022-10-06T09:11:59.384Z,67.68
2022-10-06T09:14:50.298Z,67.41
2022-10-06T09:17:22.990Z,67.07
2022-10-06T09:20:24.156Z,66.54
2022-10-06T09:22:50.860Z,66.47
2022-10-06T09:25:20.375Z,66.13
2022-10-06T09:27:50.633Z,65.60
2022-10-06T09:30:17.703Z,65.47
2022-10-06T09:32:47.308Z,65.50
2022-10-06T09:35:21.807Z,65.66
2022-10-06T09:37:54.201Z,65.21
2022-10-06T09:40:33.517Z,65.04
2022-10-06T09:43:00.327Z,64.74
2022-10-06T09:45:28.989Z,64.58
2022-10-06T09:47:55.766Z,63.90
2022-10-06T09:50:22.402Z,63.72
2022-10-06T09:52:59.243Z,63.53
2022-10-06T09:55:29.808Z,63.10
2022-10-06T09:57:57.313Z,62.58
2022-10-06T10:00:38.531Z,62.16
2022-10-06T10:03:09.657Z,61.35
2022-10-06T10:05:37.685Z,61.34
2022-10-06T10:08:27.571Z,61.22
2022-10-06T10:11:32.404Z,61.31
2022-10-06T10:13:59.286Z,61.22
2022-10-06T10:16:34.525Z,60.64
2022-10-06T10:19:05.738Z,60.46
2022-10-06T10:21:37.104Z,60.40
2022-10-06T10:24:07.368Z,60.09
2022-10-06T10:26:57.874Z,60.18
2022-10-06T10:29:33.517Z,59.92
2022-10-06T10:32:38.523Z,59.51
2022-10-06T10:35:22.354Z,59.53
2022-10-06T10:38:18.176Z,59.66
2022-10-06T10:40:50.639Z,59.92
2022-10-06T10:43:26.042Z,59.62
2022-10-06T10:45:59.751Z,58.94
2022-10-06T10:48:35.610Z,58.61
2022-10-06T10:51:07.836Z,58.16
2022-10-06T10:54:00.507Z,57.88
2022-10-06T10:56:27.463Z,58.08
2022-10-06T10:58:56.451Z,57.87
2022-10-06T11:01:32.378Z,58.25
2022-10-06T11:03:59.162Z,58.35
2022-10-06T11:07:08.527Z,57.98
2022-10-06T11:09:51.148Z,57.74
2022-10-06T11:12:23.947Z,57.33
2022-10-06T11:15:05.630Z,57.13
2022-10-06T11:17:44.742Z,57.01
2022-10-06T11:20:29.877Z,56.99
2022-10-06T11:23:21.493Z,56.87
2022-10-06T11:26:09.851Z,57.13
2022-10-06T11:29:19.082Z,56.71
2022-10-06T11:31:54.720Z,56.02
2022-10-06T11:34:21.544Z,55.85
2022-10-06T11:37:12.827Z,55.29
2022-10-06T11:39:58.265Z,55.23
2022-10-06T11:42:51.073Z,55.03
2022-10-06T11:45:20.912Z,55.29
2022-10-06T11:47:56.243Z,55.39
2022-10-06T11:50:36.692Z,55.18
2022-10-06T11:53:06.604Z,55.13
2022-10-06T11:55:33.334Z,54.75
2022-10-06T11:58:29.779Z,54.85
2022-10-06T12:00:54.743Z,54.69
2022-10-06T12:03:33.444Z,54.46
2022-10-06T12:06:00.198Z,54.78
2022-10-06T12:08:37.653Z,54.74
2022-10-06T12:11:39.900Z,54.87
2022-10-06T12:15:31.927Z,55.04
2022-10-06T12:17:32.132Z,54.68
2022-10-06T12:20:01.997Z,54.65
2022-10-06T12:22:34.646Z,54.43
2022-10-06T12:25:18.117Z,54.40
2022-10-06T12:28:03.583Z,54.08
2022-10-06T12:30:43.951Z,54.08
2022-10-06T12:33:17.907Z,53.99
2022-10-06T12:35:44.958Z,53.63
2022-10-06T12:38:33.935Z,53.54
2022-10-06T12:41:01.771Z,53.85
2022-10-06T12:43:33.212Z,54.02
2022-10-06T12:46:18.336Z,54.16
2022-10-06T12:49:12.198Z,54.16
2022-10-06T12:51:40.050Z,53.84
2022-10-06T12:54:20.344Z,53.85
2022-10-06T12:56:58.959Z,53.88
2022-10-06T12:59:33.728Z,53.82
2022-10-06T13:02:13.405Z,53.83
2022-10-06T13:04:41.373Z,54.05
2022-10-06T13:07:13.807Z,53.53
2022-10-06T13:09:40.882Z,53.29
2022-10-06T13:12:32.337Z,53.25
2022-10-06T13:15:13.472Z,53.36
2022-10-06T13:17:49.037Z,53.37
2022-10-06T13:20:23.103Z,53.38
2022-10-06T13:23:00.903Z,53.44
2022-10-06T13:25:33.346Z,53.42
2022-10-06T13:28:02.334Z,53.45
2022-10-06T13:30:29.273Z,53.59
2022-10-06T13:32:56.003Z,53.77
2022-10-06T13:35:24.702Z,53.49
2022-10-06T13:37:52.664Z,53.50
2022-10-06T13:40:47.047Z,53.57
2022-10-06T13:43:16.210Z,53.76
2022-10-06T13:45:43.022Z,53.68
2022-10-06T13:48:18.639Z,53.81
2022-10-06T13:50:46.630Z,53.90
2022-10-06T13:53:25.661Z,53.92
2022-10-06T13:55:52.579Z,53.89
2022-10-06T13:58:19.596Z,53.88
2022-10-06T14:01:01.009Z,54.01
2022-10-06T14:06:08.244Z,54.48
2022-10-06T14:08:34.989Z,54.47
2022-10-06T14:11:04.160Z,54.53
2022-10-06T14:13:46.143Z,55.17
2022-10-06T14:16:21.158Z,55.48
2022-10-06T14:18:58.984Z,55.78
2022-10-06T14:21:38.252Z,55.55
2022-10-06T14:24:17.172Z,55.90
2022-10-06T14:26:44.450Z,55.86
2022-10-06T14:29:13.529Z,55.76
2022-10-06T14:31:40.284Z,55.92
2022-10-06T14:34:14.330Z,55.97
2022-10-06T14:36:42.171Z,56.02
2022-10-06T14:39:09.250Z,56.14
2022-10-06T14:41:36.015Z,56.40
2022-10-06T14:44:08.999Z,56.66
2022-10-06T14:46:36.220Z,56.85
2022-10-06T14:49:09.809Z,57.05
2022-10-06T14:51:37.410Z,57.21
2022-10-06T14:54:04.739Z,57.31
2022-10-06T14:56:32.675Z,57.57
2022-10-06T14:59:04.943Z,57.71
2022-10-06T15:01:33.304Z,57.85
2022-10-06T15:04:02.113Z,58.04
2022-10-06T15:06:47.404Z,58.26
2022-10-06T15:09:14.229Z,58.56
2022-10-06T15:11:41.050Z,58.81
2022-10-06T15:14:10.655Z,58.98
2022-10-06T15:16:40.544Z,59.25
2022-10-06T15:19:07.231Z,59.48
2022-10-06T15:21:34.235Z,59.75
2022-10-06T15:24:02.829Z,60.03
2022-10-06T15:26:48.108Z,60.33
2022-10-06T15:29:15.040Z,60.88
2022-10-06T15:31:46.562Z,61.36
2022-10-06T15:34:13.952Z,61.69
2022-10-06T15:36:41.780Z,62.23
2022-10-06T15:39:10.405Z,62.70
2022-10-06T15:41:38.352Z,63.27
2022-10-06T15:44:05.593Z,63.71
2022-10-06T15:46:40.039Z,64.17
2022-10-06T15:49:10.933Z,64.65
2022-10-06T15:51:42.988Z,65.13
2022-10-06T15:54:10.886Z,65.71
2022-10-06T15:56:38.202Z,66.32
2022-10-06T15:59:05.850Z,66.98
2022-10-06T16:01:47.116Z,67.61
2022-10-06T16:04:40.239Z,68.19
2022-10-06T16:07:07.439Z,68.74
2022-10-06T16:09:45.501Z,69.23
2022-10-06T16:12:13.789Z,69.68
2022-10-06T16:14:40.513Z,70.13
2022-10-06T16:17:07.897Z,70.45
2022-10-06T16:19:36.934Z,70.86
2022-10-06T16:22:04.350Z,71.32
2022-10-06T16:24:31.328Z,71.77
2022-10-06T16:26:59.879Z,72.10
2022-10-06T16:29:26.910Z,72.63
2022-10-06T16:31:53.691Z,72.81
2022-10-06T16:34:20.493Z,73.13
2022-10-06T16:40:36.306Z,74.02
2022-10-06T16:43:02.985Z,74.21
2022-10-06T16:45:29.751Z,74.50
2022-10-06T16:47:56.591Z,74.90
2022-10-06T16:50:23.296Z,75.12
2022-10-06T16:52:49.986Z,75.41
2022-10-06T16:55:16.707Z,75.73
2022-10-06T16:57:43.393Z,76.16
2022-10-06T17:00:11.182Z,76.37
2022-10-06T17:02:38.875Z,76.74
2022-10-06T17:05:05.876Z,76.86
2022-10-06T17:07:32.960Z,77.16
2022-10-06T17:10:19.002Z,77.55
2022-10-06T17:12:46.793Z,77.96
2022-10-06T17:15:13.456Z,78.31
2022-10-06T17:17:40.602Z,78.47
2022-10-06T17:20:08.208Z,78.58
2022-10-06T17:22:34.990Z,78.98
2022-10-06T17:25:01.625Z,78.99
2022-10-06T17:27:37.163Z,79.12
2022-10-06T17:30:08.655Z,79.34
2022-10-06T17:32:35.438Z,79.62
2022-10-06T17:35:02.155Z,79.82
2022-10-06T17:37:29.713Z,79.97
2022-10-06T17:39:56.391Z,80.07
2022-10-06T17:42:28.108Z,80.10
2022-10-06T17:44:54.821Z,80.45
2022-10-06T17:47:21.418Z,80.52
2022-10-06T17:49:48.225Z,80.64
2022-10-06T17:52:14.823Z,81.01
2022-10-06T17:54:43.196Z,81.31
2022-10-06T17:57:10.138Z,81.41
2022-10-06T17:59:36.879Z,81.62
2022-10-06T18:02:03.803Z,82.00
2022-10-06T18:04:30.651Z,82.23
2022-10-06T18:06:57.557Z,82.38
2022-10-06T18:09:24.458Z,82.34
2022-10-06T18:11:56.612Z,82.48
2022-10-06T18:14:28.227Z,82.31
2022-10-06T18:16:57.781Z,82.52
2022-10-06T18:19:31.597Z,82.25
2022-10-06T18:22:13.984Z,82.00
2022-10-06T18:24:40.736Z,81.96
2022-10-06T18:27:08.084Z,81.90
2022-10-06T18:29:36.346Z,81.74
2022-10-06T18:37:37.313Z,81.58
2022-10-06T18:40:06.819Z,81.64
2022-10-06T18:42:33.560Z,81.58
2022-10-06T18:45:18.889Z,81.77
2022-10-06T18:48:04.185Z,81.44
2022-10-06T18:50:32.177Z,81.72
2022-10-06T18:52:58.933Z,81.61
2022-10-06T18:55:26.457Z,81.39
2022-10-06T18:57:53.436Z,81.37
2022-10-06T19:00:20.221Z,81.44
2022-10-06T19:02:49.036Z,81.34
2022-10-06T19:05:17.448Z,81.12
2022-10-06T19:07:45.007Z,80.92
2022-10-06T19:10:12.188Z,80.76
2022-10-06T19:12:39.070Z,80.74
2022-10-06T19:15:06.264Z,80.49
2022-10-06T19:17:33.104Z,80.41
2022-10-06T19:19:59.920Z,80.24
2022-10-06T19:22:26.694Z,80.17
2022-10-06T19:24:53.523Z,80.12
2022-10-06T19:27:24.215Z,80.05
2022-10-06T19:29:53.094Z,79.79
2022-10-06T19:32:21.970Z,79.69
2022-10-06T19:34:48.820Z,79.64
2022-10-06T19:37:15.688Z,79.64
2022-10-06T19:39:43.876Z,79.51
2022-10-06T19:42:33.222Z,79.46
2022-10-06T19:45:00.054Z,79.39
2022-10-06T19:47:27.297Z,79.35
2022-10-06T19:49:58.309Z,79.38
2022-10-06T19:52:26.637Z,79.37
2022-10-06T19:54:53.344Z,79.26
2022-10-06T19:57:19.928Z,79.34
2022-10-06T19:59:46.643Z,79.37
2022-10-06T20:02:13.376Z,79.44
2022-10-06T20:04:40.509Z,79.38
2022-10-06T20:07:08.761Z,79.38
2022-10-06T20:09:35.721Z,79.38
2022-10-06T20:12:02.616Z,79.38
2022-10-06T20:14:29.504Z,79.33
2022-10-06T20:16:57.467Z,79.46
2022-10-06T20:19:25.511Z,79.31
2022-10-06T20:21:52.548Z,79.48
2022-10-06T20:24:22.636Z,79.54
2022-10-06T20:26:50.478Z,79.67
2022-10-06T20:29:19.097Z,79.87
2022-10-06T20:31:47.626Z,80.28
2022-10-06T20:34:19.104Z,80.20
2022-10-06T20:36:46.314Z,80.52
2022-10-06T20:39:34.074Z,80.78
2022-10-06T20:42:00.771Z,81.03
2022-10-06T20:44:27.437Z,81.49
2022-10-06T20:46:54.561Z,81.60
2022-10-06T20:49:21.358Z,82.06
2022-10-06T20:55:17.741Z,82.55
2022-10-06T20:57:44.649Z,82.73
2022-10-06T21:00:11.974Z,82.82
2022-10-06T21:02:39.128Z,83.02
2022-10-06T21:05:06.958Z,83.25
2022-10-06T21:07:34.375Z,83.43
2022-10-06T21:10:01.052Z,83.60
2022-10-06T21:12:28.476Z,83.80
2022-10-06T21:14:57.009Z,84.10
2022-10-06T21:17:23.812Z,84.11
2022-10-06T21:19:50.533Z,84.35
2022-10-06T21:22:17.376Z,84.61
2022-10-06T21:24:44.083Z,84.97
2022-10-06T21:27:10.748Z,84.97
2022-10-06T21:29:37.527Z,85.03
2022-10-06T21:32:04.135Z,85.13
2022-10-06T21:34:31.666Z,85.58
2022-10-06T21:36:58.403Z,85.66
2022-10-06T21:39:25.024Z,86.11
2022-10-06T21:41:51.735Z,86.17
2022-10-06T21:44:18.423Z,86.45
2022-10-06T21:46:55.242Z,86.43
2022-10-06T21:49:23.552Z,86.56
2022-10-06T21:51:51.733Z,86.72
2022-10-06T21:54:18.864Z,86.85
2022-10-06T21:56:45.679Z,87.09
2022-10-06T21:59:12.322Z,87.35
2022-10-06T22:01:43.279Z,87.75
2022-10-06T22:04:10.549Z,88.08
2022-10-06T22:06:37.515Z,88.32
2022-10-06T22:09:05.359Z,88.54
2022-10-06T22:11:34.915Z,88.96
2022-10-06T22:14:02.917Z,89.08
2022-10-06T22:16:31.271Z,89.42
2022-10-06T22:18:58.318Z,89.60
2022-10-06T22:21:29.464Z,89.77
2022-10-06T22:23:57.843Z,89.98
2022-10-06T22:26:24.664Z,90.19
2022-10-06T22:28:52.159Z,90.27
2022-10-06T22:31:23.229Z,90.36
2022-10-06T22:33:57.622Z,90.50
2022-10-06T22:36:24.627Z,90.45
2022-10-06T22:38:51.536Z,90.52
2022-10-06T22:41:18.349Z,90.48
2022-10-06T22:43:45.048Z,90.38
2022-10-06T22:46:11.925Z,90.35
2022-10-06T22:48:38.858Z,90.39
2022-10-06T22:51:05.972Z,90.39
2022-10-06T22:53:32.832Z,90.71
2022-10-06T22:55:59.957Z,90.84
2022-10-06T22:58:26.897Z,91.07
2022-10-06T23:00:54.187Z,91.40
2022-10-06T23:03:21.117Z,91.77
2022-10-06T23:05:55.434Z,91.79
2022-10-06T23:08:22.216Z,91.68
2022-10-06T23:10:48.926Z,91.41
2022-10-06T23:13:15.627Z,91.16
2022-10-06T23:15:42.337Z,90.82
2022-10-06T23:18:09.268Z,90.44
2022-10-06T23:20:35.989Z,90.18
2022-10-06T23:23:02.717Z,89.66
2022-10-06T23:25:29.428Z,89.42
2022-10-06T23:27:56.120Z,89.02
2022-10-06T23:30:22.880Z,88.55
2022-10-06T23:32:49.563Z,88.40
2022-10-06T23:35:16.199Z,88.03
2022-10-06T23:37:43.153Z,87.84
2022-10-06T23:40:10.495Z,87.64
2022-10-06T23:42:37.174Z,87.41
2022-10-06T23:45:04.233Z,86.85
2022-10-06T23:47:30.920Z,86.29
2022-10-06T23:49:57.709Z,85.76
2022-10-06T23:52:24.432Z,85.53
2022-10-06T23:54:51.205Z,85.37
2022-10-06T23:57:17.908Z,85.22
2022-10-06T23:59:44.598Z,85.12
